This is the latest recevied weather packets stored in our database for station/object YO8SHU-10. If no packets are shown the sender has not sent any weather packets the latest 10 day(s).
| Time | Temp. | Humidity | Pressure | Rain* | Wind** | Luminosity | Snow |
|---|---|---|---|---|---|---|---|
| 1777716017 | 10.56° C | 100% | 1029.4 hPa | - | - | - | - |
| 1777714217 | 10.56° C | 100% | 1029.5 hPa | - | - | - | - |
| 1777712417 | 6.67° C | 100% | 1030 hPa | - | - | - | - |
| 1777710616 | 11.11° C | 84% | 1029.5 hPa | - | - | - | - |
| 1777708815 | 12.78° C | 76% | 1029.6 hPa | - | - | - | - |
| 1777707015 | 11.67° C | 76% | 1029.6 hPa | - | - | - | - |
| 1777705215 | 10.56° C | 84% | 1029.6 hPa | - | - | - | - |
| 1777703415 | 9.44° C | 90% | 1029.6 hPa | - | - | - | - |
| 1777701614 | 8.89° C | 94% | 1029.5 hPa | - | - | - | - |
| 1777699814 | 8.33° C | 100% | 1029.5 hPa | - | - | - | - |
| 1777698013 | 7.22° C | 100% | 1029.3 hPa | - | - | - | - |
| 1777696213 | 6.67° C | 100% | 1029.1 hPa | - | - | - | - |
| 1777694413 | 6.11° C | 100% | 1029.1 hPa | - | - | - | - |
| 1777692613 | 6.11° C | 100% | 1028.9 hPa | - | - | - | - |
| 1777690812 | 6.11° C | 100% | 1028.8 hPa | - | - | - | - |
| 1777689012 | 5.56° C | 100% | 1028.7 hPa | - | - | - | - |
| 1777669208 | 8.89° C | 59% | 1029.3 hPa | - | - | - | - |
| 1777667408 | 9.44° C | 52% | 1029.4 hPa | - | - | - | - |
| 1777656606 | 11.11° C | 40% | 1029.1 hPa | - | - | - | - |
| 1777649404 | 12.78° C | 35% | 1029 hPa | - | - | - | - |
| 1777647604 | 13.33° C | 35% | 1029.2 hPa | - | - | - | - |
| 1777645804 | 13.89° C | 35% | 1029.2 hPa | - | - | - | - |
| 1777642203 | 14.44° C | 34% | 1029.4 hPa | - | - | - | - |
| 1777635003 | 12.22° C | 35% | 1030.5 hPa | - | - | - | - |
| 1777633203 | 13.89° C | 34% | 1030.6 hPa | - | - | - | - |
* Rain since midnight (hover to see other rain measurements)
** Current wind speed in m/s (hover to see current wind gust speed)